createdAt,value
2023-05-02T00:01:18.918Z,1.88
2023-05-02T00:04:04.999Z,1.98
2023-05-02T00:06:53.265Z,2.00
2023-05-02T00:09:38.595Z,1.90
2023-05-02T00:12:24.041Z,1.60
2023-05-02T00:15:10.132Z,1.50
2023-05-02T00:17:55.572Z,1.85
2023-05-02T00:20:42.066Z,1.92
2023-05-02T00:23:27.504Z,2.00
2023-05-02T00:26:12.814Z,1.90
2023-05-02T00:28:58.903Z,1.90
2023-05-02T00:31:44.870Z,2.10
2023-05-02T00:34:31.556Z,2.00
2023-05-02T00:37:17.142Z,2.15
2023-05-02T00:40:03.547Z,1.85
2023-05-02T00:42:48.640Z,1.77
2023-05-02T00:45:34.220Z,1.80
2023-05-02T00:48:21.812Z,1.80
2023-05-02T00:51:08.710Z,1.70
2023-05-02T00:53:54.241Z,1.80
2023-05-02T00:56:39.594Z,1.60
2023-05-02T00:59:26.778Z,1.73
2023-05-02T01:02:31.239Z,1.50
2023-05-02T01:05:36.099Z,1.60
2023-05-02T01:08:47.130Z,2.00
2023-05-02T01:11:40.263Z,1.88
2023-05-02T01:14:29.666Z,1.80
2023-05-02T01:17:17.165Z,1.70
2023-05-02T01:20:08.762Z,1.67
2023-05-02T01:22:58.544Z,1.92
2023-05-02T01:26:31.279Z,1.92
2023-05-02T01:29:18.583Z,2.08
2023-05-02T01:32:06.713Z,2.00
2023-05-02T01:34:54.147Z,2.63
2023-05-02T01:37:41.098Z,6.03
2023-05-02T01:40:27.161Z,3.80
2023-05-02T01:43:14.872Z,3.28
2023-05-02T01:46:02.125Z,2.70
2023-05-02T01:48:50.463Z,2.40
2023-05-02T01:51:40.845Z,2.00
2023-05-02T01:54:27.522Z,2.20
2023-05-02T01:57:14.720Z,2.15
2023-05-02T02:00:02.151Z,2.65
2023-05-02T02:02:48.900Z,2.03
2023-05-02T02:05:37.092Z,2.15
2023-05-02T02:08:22.667Z,2.30
2023-05-02T02:11:12.097Z,2.17
2023-05-02T02:14:06.585Z,2.10
2023-05-02T02:16:56.258Z,2.60
2023-05-02T02:19:44.187Z,7.25
2023-05-02T02:22:30.800Z,3.53
2023-05-02T02:25:18.059Z,5.35
2023-05-02T02:28:03.875Z,11.75
2023-05-02T02:30:49.172Z,12.32
2023-05-02T02:33:34.890Z,10.98
2023-05-02T02:36:55.369Z,13.20
2023-05-02T02:39:46.493Z,6.70
2023-05-02T02:42:40.036Z,3.42
2023-05-02T02:45:35.385Z,3.03
2023-05-02T02:48:33.284Z,4.50
2023-05-02T02:51:47.135Z,4.57
2023-05-02T02:54:40.442Z,3.30
2023-05-02T02:57:40.999Z,3.05
2023-05-02T03:00:28.416Z,2.85
2023-05-02T03:03:15.872Z,2.88
2023-05-02T03:06:03.969Z,2.42
2023-05-02T03:08:49.502Z,2.67
2023-05-02T03:11:35.134Z,2.67
2023-05-02T03:14:20.563Z,3.00
2023-05-02T03:17:08.515Z,3.10
2023-05-02T03:19:54.119Z,2.90
2023-05-02T03:22:39.639Z,3.40
2023-05-02T03:25:25.107Z,2.80
2023-05-02T03:28:11.270Z,2.55
2023-05-02T03:30:57.967Z,2.60
2023-05-02T03:33:43.305Z,2.58
2023-05-02T03:36:28.739Z,2.30
2023-05-02T03:39:15.273Z,2.70
2023-05-02T03:42:00.907Z,2.33
2023-05-02T03:44:46.648Z,2.35
2023-05-02T03:47:32.253Z,2.33
2023-05-02T03:50:17.611Z,2.50
2023-05-02T03:53:03.100Z,2.30
2023-05-02T03:55:48.755Z,2.28
2023-05-02T03:58:36.242Z,2.40
2023-05-02T04:01:21.509Z,2.05
2023-05-02T04:04:07.246Z,2.40
2023-05-02T04:06:52.821Z,2.30
2023-05-02T04:09:38.421Z,2.20
2023-05-02T04:12:24.036Z,2.30
2023-05-02T04:15:10.874Z,2.25
2023-05-02T04:17:59.142Z,2.78
2023-05-02T04:20:45.442Z,2.30
2023-05-02T04:23:30.774Z,2.17
2023-05-02T04:26:16.567Z,1.98
2023-05-02T04:29:02.609Z,2.13
2023-05-02T04:31:48.969Z,1.75
2023-05-02T04:34:34.568Z,2.03
2023-05-02T04:37:21.115Z,1.67
2023-05-02T04:40:09.239Z,1.73
2023-05-02T04:42:54.876Z,1.73
2023-05-02T04:45:40.394Z,1.98
2023-05-02T04:48:26.524Z,1.80
2023-05-02T04:51:12.534Z,1.45
2023-05-02T04:53:58.557Z,1.67
2023-05-02T04:56:44.326Z,1.70
2023-05-02T04:59:30.402Z,1.88
2023-05-02T05:02:16.372Z,2.40
2023-05-02T05:05:02.776Z,1.67
2023-05-02T05:07:48.748Z,2.50
2023-05-02T05:10:34.509Z,1.90
2023-05-02T05:13:19.968Z,2.13
2023-05-02T05:16:05.600Z,2.20
2023-05-02T05:18:50.932Z,2.40
2023-05-02T05:21:37.141Z,2.28
2023-05-02T05:24:22.702Z,2.33
2023-05-02T05:27:08.575Z,2.28
2023-05-02T05:29:54.297Z,2.10
2023-05-02T05:32:39.972Z,2.33
2023-05-02T05:35:25.873Z,2.15
2023-05-02T05:38:11.377Z,2.00
2023-05-02T05:40:56.947Z,2.50
2023-05-02T05:43:42.565Z,3.40
2023-05-02T05:46:27.824Z,3.17
2023-05-02T05:49:15.686Z,3.15
2023-05-02T05:52:02.184Z,2.60
2023-05-02T05:54:47.675Z,2.70
2023-05-02T05:57:33.080Z,2.70
2023-05-02T06:00:19.069Z,3.10
2023-05-02T06:03:08.044Z,2.53
2023-05-02T06:05:54.922Z,2.70
2023-05-02T06:08:40.610Z,3.03
2023-05-02T06:11:26.379Z,2.83
2023-05-02T06:14:11.685Z,2.67
2023-05-02T06:16:59.593Z,2.40
2023-05-02T06:19:45.077Z,2.00
2023-05-02T06:22:30.631Z,2.70
2023-05-02T06:25:16.026Z,2.60
2023-05-02T06:28:01.422Z,2.75
2023-05-02T06:30:46.918Z,2.47
2023-05-02T06:33:33.826Z,2.50
2023-05-02T06:36:19.118Z,2.70
2023-05-02T06:39:04.684Z,2.88
2023-05-02T06:41:50.067Z,2.90
2023-05-02T06:44:35.312Z,3.08
2023-05-02T06:47:21.091Z,2.55
2023-05-02T06:50:07.030Z,2.58
2023-05-02T06:52:52.314Z,2.45
2023-05-02T06:55:38.102Z,2.38
2023-05-02T06:58:23.868Z,2.13
2023-05-02T07:01:09.600Z,2.30
2023-05-02T07:03:54.932Z,2.60
2023-05-02T07:06:41.239Z,2.83
2023-05-02T07:09:27.065Z,2.67
2023-05-02T07:12:12.474Z,2.22
2023-05-02T07:14:57.803Z,2.22
2023-05-02T07:17:43.459Z,2.55
2023-05-02T07:20:28.681Z,2.83
2023-05-02T07:23:14.316Z,2.80
2023-05-02T07:26:00.065Z,4.90
2023-05-02T07:28:45.526Z,4.53
2023-05-02T07:31:30.962Z,4.40
2023-05-02T07:34:16.607Z,4.03
2023-05-02T07:37:02.370Z,4.60
2023-05-02T07:39:47.827Z,4.88
2023-05-02T07:42:33.276Z,4.70
2023-05-02T07:45:18.770Z,4.97
2023-05-02T07:48:04.498Z,5.28
2023-05-02T07:50:49.850Z,5.55
2023-05-02T07:53:35.228Z,5.18
2023-05-02T07:56:21.288Z,5.32
2023-05-02T07:59:06.438Z,5.57
2023-05-02T08:01:52.144Z,5.60
2023-05-02T08:04:37.931Z,5.90
2023-05-02T08:07:23.682Z,5.78
2023-05-02T08:10:10.473Z,5.32
2023-05-02T08:12:55.781Z,5.53
2023-05-02T08:15:41.254Z,5.88
2023-05-02T08:18:27.212Z,5.97
2023-05-02T08:21:13.182Z,6.20
2023-05-02T08:23:59.653Z,5.82
2023-05-02T08:26:44.919Z,5.85
2023-05-02T08:29:31.615Z,5.78
2023-05-02T08:32:17.274Z,5.57
2023-05-02T08:35:03.204Z,6.07
2023-05-02T08:37:48.474Z,5.47
2023-05-02T08:40:42.061Z,5.55
2023-05-02T08:43:30.889Z,6.22
2023-05-02T08:46:17.629Z,6.03
2023-05-02T08:49:03.587Z,5.70
2023-05-02T08:51:51.711Z,6.30
2023-05-02T08:54:38.423Z,6.35
2023-05-02T08:57:24.043Z,6.97
2023-05-02T09:00:10.115Z,8.30
2023-05-02T09:03:14.303Z,7.45
2023-05-02T09:06:04.943Z,10.80
2023-05-02T09:08:54.843Z,5.97
2023-05-02T09:11:40.737Z,5.93
2023-05-02T09:14:26.581Z,5.25
2023-05-02T09:17:12.031Z,5.13
2023-05-02T09:20:01.437Z,5.53
2023-05-02T09:22:51.590Z,5.03
2023-05-02T09:25:38.468Z,4.85
2023-05-02T09:28:40.061Z,4.97
2023-05-02T09:31:55.100Z,5.18
2023-05-02T09:35:04.313Z,5.20
2023-05-02T09:37:59.238Z,5.00
2023-05-02T09:40:57.869Z,5.82
2023-05-02T09:43:43.523Z,5.45
2023-05-02T09:46:40.767Z,5.85
2023-05-02T09:49:45.065Z,5.28
2023-05-02T09:52:30.959Z,4.68
2023-05-02T09:55:22.616Z,5.20
2023-05-02T09:58:11.667Z,5.53
2023-05-02T10:00:58.013Z,4.97
2023-05-02T10:03:47.698Z,5.25
2023-05-02T10:06:33.560Z,5.00
2023-05-02T10:09:21.721Z,5.25
2023-05-02T10:12:08.702Z,4.78
2023-05-02T10:15:00.736Z,4.43
2023-05-02T10:17:49.404Z,4.38
2023-05-02T10:20:37.779Z,3.95
2023-05-02T10:23:27.097Z,4.10
2023-05-02T10:26:17.428Z,4.57
2023-05-02T10:29:02.891Z,4.43
2023-05-02T10:31:50.085Z,4.10
2023-05-02T10:34:37.986Z,5.07
2023-05-02T10:37:27.769Z,4.75
2023-05-02T10:40:13.775Z,4.32
2023-05-02T10:42:59.516Z,3.78
2023-05-02T10:45:45.560Z,4.13
2023-05-02T10:48:31.409Z,3.53
2023-05-02T10:51:29.578Z,4.20
2023-05-02T10:54:18.067Z,3.67
2023-05-02T10:57:06.011Z,3.80
2023-05-02T10:59:51.208Z,3.83
2023-05-02T11:02:38.148Z,3.55
2023-05-02T11:05:24.789Z,3.55
2023-05-02T11:08:20.156Z,3.33
2023-05-02T11:11:43.299Z,3.47
2023-05-02T11:14:38.120Z,3.30
2023-05-02T11:17:23.588Z,4.05
2023-05-02T11:20:09.240Z,4.00
2023-05-02T11:22:56.503Z,3.75
2023-05-02T11:25:43.909Z,3.22
2023-05-02T11:28:40.875Z,3.30
2023-05-02T11:31:29.450Z,3.40
2023-05-02T11:34:15.410Z,3.70
2023-05-02T11:37:01.045Z,3.25
2023-05-02T11:39:51.531Z,3.33
2023-05-02T11:42:36.860Z,3.17
2023-05-02T11:45:23.980Z,2.78
2023-05-02T11:48:11.524Z,2.92
2023-05-02T11:51:05.661Z,2.65
2023-05-02T11:53:51.492Z,2.67
2023-05-02T11:56:37.126Z,2.75
2023-05-02T11:59:22.478Z,2.60
2023-05-02T12:02:07.897Z,2.53
2023-05-02T12:04:53.389Z,2.67
2023-05-02T12:07:44.980Z,2.92
2023-05-02T12:10:37.732Z,2.97
2023-05-02T12:13:25.077Z,2.88
2023-05-02T12:16:10.458Z,2.97
2023-05-02T12:18:58.171Z,2.90
2023-05-02T12:21:43.946Z,2.67
2023-05-02T12:24:29.953Z,2.63
2023-05-02T12:27:16.936Z,2.47
2023-05-02T12:30:02.822Z,2.83
2023-05-02T12:32:59.891Z,2.67
2023-05-02T12:35:47.612Z,2.50
2023-05-02T12:38:34.010Z,2.10
2023-05-02T12:41:30.665Z,2.70
2023-05-02T12:44:16.205Z,2.40
2023-05-02T12:47:01.734Z,2.50
2023-05-02T12:49:54.864Z,2.80
2023-05-02T12:52:51.235Z,2.55
2023-05-02T12:55:37.211Z,2.53
2023-05-02T12:58:25.515Z,3.17
2023-05-02T13:01:11.519Z,2.72
2023-05-02T13:03:57.040Z,2.83
2023-05-02T13:06:43.621Z,2.80
2023-05-02T13:09:30.617Z,2.50
2023-05-02T13:12:16.014Z,2.92
2023-05-02T13:15:01.578Z,2.40
2023-05-02T13:17:48.132Z,2.47
2023-05-02T13:20:33.882Z,2.75
2023-05-02T13:23:19.554Z,2.40
2023-05-02T13:26:04.955Z,2.42
2023-05-02T13:28:50.199Z,2.47
2023-05-02T13:31:35.843Z,2.70
2023-05-02T13:34:21.047Z,2.47
2023-05-02T13:37:06.659Z,2.85
2023-05-02T13:39:52.109Z,2.70
2023-05-02T13:42:37.618Z,2.65
2023-05-02T13:45:24.406Z,2.63
2023-05-02T13:48:10.230Z,2.78
2023-05-02T13:50:55.626Z,2.63
2023-05-02T13:53:41.252Z,2.60
2023-05-02T13:56:26.985Z,2.60
2023-05-02T13:59:12.192Z,2.50
2023-05-02T14:01:58.035Z,2.80
2023-05-02T14:04:43.222Z,2.97
2023-05-02T14:07:29.499Z,2.88
2023-05-02T14:10:15.046Z,2.65
2023-05-02T14:13:00.704Z,3.38
2023-05-02T14:15:46.229Z,2.78
2023-05-02T14:18:31.742Z,3.00
2023-05-02T14:21:17.523Z,3.03
2023-05-02T14:24:03.053Z,2.90
2023-05-02T14:26:48.487Z,3.00
2023-05-02T14:29:33.862Z,3.40
2023-05-02T14:32:19.290Z,2.80
2023-05-02T14:35:05.221Z,2.97
2023-05-02T14:37:50.533Z,3.20
2023-05-02T14:40:36.023Z,3.50
2023-05-02T14:43:21.701Z,3.33
2023-05-02T14:46:06.875Z,3.10
2023-05-02T14:48:52.668Z,3.28
2023-05-02T14:51:39.408Z,3.08
2023-05-02T14:54:30.395Z,2.78
2023-05-02T14:57:16.416Z,2.58
2023-05-02T15:00:02.400Z,2.92
2023-05-02T15:02:48.088Z,2.80
2023-05-02T15:05:34.181Z,2.60
2023-05-02T15:08:19.687Z,2.40
2023-05-02T15:11:05.177Z,2.67
2023-05-02T15:13:50.788Z,2.67
2023-05-02T15:16:37.533Z,3.20
2023-05-02T15:19:25.127Z,3.08
2023-05-02T15:22:11.299Z,3.53
2023-05-02T15:24:57.586Z,3.08
2023-05-02T15:27:42.869Z,3.40
2023-05-02T15:30:28.561Z,3.10
2023-05-02T15:33:14.033Z,3.13
2023-05-02T15:35:59.308Z,2.63
2023-05-02T15:38:44.871Z,2.92
2023-05-02T15:41:30.556Z,2.90
2023-05-02T15:44:16.014Z,2.42
2023-05-02T15:47:01.326Z,3.10
2023-05-02T15:49:46.653Z,3.88
2023-05-02T15:52:32.022Z,3.65
2023-05-02T15:55:17.611Z,5.15
2023-05-02T15:58:02.834Z,3.95
2023-05-02T16:00:48.599Z,4.65
2023-05-02T16:03:34.371Z,3.30
2023-05-02T16:06:20.175Z,3.08
2023-05-02T16:09:06.627Z,3.42
2023-05-02T16:11:52.054Z,2.70
2023-05-02T16:14:37.556Z,2.65
2023-05-02T16:17:25.189Z,2.40
2023-05-02T16:20:12.969Z,2.30
2023-05-02T16:22:59.966Z,2.42
2023-05-02T16:25:45.255Z,2.30
2023-05-02T16:28:30.864Z,2.08
2023-05-02T16:31:17.487Z,2.20
2023-05-02T16:34:03.184Z,2.20
2023-05-02T16:36:49.873Z,2.40
2023-05-02T16:39:35.520Z,2.00
2023-05-02T16:42:20.986Z,2.08
2023-05-02T16:45:07.217Z,2.72
2023-05-02T16:47:53.403Z,2.25
2023-05-02T16:50:38.858Z,2.40
2023-05-02T16:53:24.772Z,2.88
2023-05-02T16:56:10.298Z,2.30
2023-05-02T16:58:55.707Z,2.38
2023-05-02T17:01:41.308Z,2.17
2023-05-02T17:04:26.547Z,2.28
2023-05-02T17:07:12.411Z,2.00
2023-05-02T17:09:58.033Z,1.98
2023-05-02T17:12:44.074Z,31.02
2023-05-02T17:15:30.806Z,25.38
2023-05-02T17:18:16.699Z,3.33
2023-05-02T17:21:03.741Z,2.22
2023-05-02T17:23:49.358Z,16.23
2023-05-02T17:26:34.961Z,3.40
2023-05-02T17:29:20.620Z,2.22
2023-05-02T17:32:06.362Z,2.33
2023-05-02T17:34:51.700Z,2.33
2023-05-02T17:37:38.324Z,2.38
2023-05-02T17:40:24.940Z,2.25
2023-05-02T17:43:10.008Z,2.30
2023-05-02T17:45:56.035Z,2.35
2023-05-02T17:48:46.438Z,2.85
2023-05-02T17:51:33.794Z,2.83
2023-05-02T17:54:20.089Z,2.70
2023-05-02T17:57:05.488Z,2.70
2023-05-02T17:59:56.713Z,2.38
2023-05-02T18:02:42.588Z,2.70
2023-05-02T18:05:28.184Z,2.70
2023-05-02T18:08:13.426Z,3.20
2023-05-02T18:11:00.107Z,3.17
2023-05-02T18:13:46.277Z,3.10
2023-05-02T18:16:34.244Z,2.90
2023-05-02T18:19:19.938Z,2.90
2023-05-02T18:22:05.801Z,3.00
2023-05-02T18:24:51.266Z,3.08
2023-05-02T18:27:36.652Z,2.97
2023-05-02T18:30:22.070Z,2.90
2023-05-02T18:33:09.182Z,3.17
2023-05-02T18:35:54.949Z,3.45
2023-05-02T18:38:42.153Z,3.15
2023-05-02T18:41:27.644Z,3.25
2023-05-02T18:44:13.473Z,2.75
2023-05-02T18:47:01.132Z,3.22
2023-05-02T18:49:46.699Z,3.20
2023-05-02T18:52:33.339Z,3.10
2023-05-02T18:55:19.037Z,2.75
2023-05-02T18:58:04.418Z,2.90
2023-05-02T19:00:49.955Z,3.50
2023-05-02T19:03:35.906Z,3.78
2023-05-02T19:06:21.673Z,3.50
2023-05-02T19:09:06.932Z,3.60
2023-05-02T19:11:54.088Z,3.47
2023-05-02T19:14:40.259Z,2.95
2023-05-02T19:17:26.794Z,3.10
2023-05-02T19:20:12.758Z,2.90
2023-05-02T19:23:15.189Z,2.90
2023-05-02T19:26:03.332Z,2.88
2023-05-02T19:28:48.824Z,3.63
2023-05-02T19:31:34.511Z,2.95
2023-05-02T19:34:20.847Z,3.63
2023-05-02T19:37:06.473Z,3.55
2023-05-02T19:39:52.629Z,3.80
2023-05-02T19:42:39.399Z,3.08
2023-05-02T19:45:25.220Z,3.30
2023-05-02T19:48:12.136Z,3.47
2023-05-02T19:50:58.466Z,3.40
2023-05-02T19:53:43.885Z,3.80
2023-05-02T19:56:30.052Z,3.90
2023-05-02T19:59:15.617Z,3.90
2023-05-02T20:02:01.234Z,3.30
2023-05-02T20:04:46.653Z,3.30
2023-05-02T20:07:32.120Z,4.03
2023-05-02T20:10:18.466Z,3.30
2023-05-02T20:13:03.930Z,3.85
2023-05-02T20:15:50.736Z,3.10
2023-05-02T20:18:36.465Z,3.30
2023-05-02T20:21:21.676Z,3.42
2023-05-02T20:24:07.509Z,3.10
2023-05-02T20:26:53.236Z,3.15
2023-05-02T20:29:38.990Z,4.20
2023-05-02T20:32:24.517Z,3.95
2023-05-02T20:35:10.247Z,4.03
2023-05-02T20:37:56.059Z,4.18
2023-05-02T20:40:42.810Z,3.97
2023-05-02T20:43:29.025Z,4.30
2023-05-02T20:46:19.265Z,4.10
2023-05-02T20:49:05.741Z,3.85
2023-05-02T20:51:51.661Z,3.60
2023-05-02T20:54:37.202Z,3.75
2023-05-02T20:57:24.311Z,4.00
2023-05-02T21:00:11.433Z,3.50
2023-05-02T21:02:58.193Z,3.70
2023-05-02T21:05:43.664Z,4.10
2023-05-02T21:08:29.324Z,4.30
2023-05-02T21:11:15.941Z,4.05
2023-05-02T21:14:01.508Z,4.10
2023-05-02T21:16:47.229Z,3.92
2023-05-02T21:19:33.287Z,4.07
2023-05-02T21:22:18.705Z,4.35
2023-05-02T21:25:04.578Z,4.28
2023-05-02T21:27:51.285Z,4.25
2023-05-02T21:30:36.845Z,4.10
2023-05-02T21:33:22.516Z,4.00
2023-05-02T21:36:08.441Z,4.57
2023-05-02T21:38:54.246Z,3.80
2023-05-02T21:41:39.706Z,3.92
2023-05-02T21:44:25.109Z,3.78
2023-05-02T21:47:10.849Z,4.10
2023-05-02T21:49:57.201Z,4.55
2023-05-02T21:52:42.348Z,4.50
2023-05-02T21:55:27.879Z,4.95
2023-05-02T21:58:13.282Z,4.47
2023-05-02T22:00:58.834Z,5.00
2023-05-02T22:03:44.306Z,4.55
2023-05-02T22:06:29.611Z,4.57
2023-05-02T22:09:15.118Z,5.28
2023-05-02T22:12:00.576Z,4.93
2023-05-02T22:14:47.227Z,5.13
2023-05-02T22:17:32.886Z,4.80
2023-05-02T22:20:18.280Z,5.28
2023-05-02T22:23:04.247Z,4.75
2023-05-02T22:25:49.720Z,4.53
2023-05-02T22:28:35.497Z,5.53
2023-05-02T22:31:21.538Z,5.05
2023-05-02T22:34:07.182Z,5.22
2023-05-02T22:36:53.041Z,5.35
2023-05-02T22:39:38.733Z,5.18
2023-05-02T22:42:24.537Z,4.70
2023-05-02T22:45:10.847Z,5.03
2023-05-02T22:47:56.489Z,4.97
2023-05-02T22:50:43.211Z,5.72
2023-05-02T22:53:29.713Z,4.93
2023-05-02T22:56:15.833Z,5.28
2023-05-02T22:59:01.539Z,5.57
2023-05-02T23:01:46.937Z,4.40
2023-05-02T23:04:33.573Z,5.18
2023-05-02T23:07:19.952Z,4.70
2023-05-02T23:10:06.409Z,5.43
2023-05-02T23:12:51.970Z,4.90
2023-05-02T23:15:38.169Z,5.97
2023-05-02T23:18:24.009Z,5.25
2023-05-02T23:21:16.755Z,5.07
2023-05-02T23:24:01.962Z,4.95
2023-05-02T23:26:47.364Z,5.18
2023-05-02T23:29:32.985Z,5.00
2023-05-02T23:32:18.335Z,5.47
2023-05-02T23:35:05.840Z,4.47
2023-05-02T23:37:52.695Z,4.95
2023-05-02T23:40:38.030Z,4.80
2023-05-02T23:43:23.922Z,4.75
2023-05-02T23:46:09.266Z,4.82
2023-05-02T23:48:54.906Z,5.10
2023-05-02T23:51:40.564Z,4.75
2023-05-02T23:54:26.167Z,4.82
2023-05-02T23:57:12.049Z,5.50
2023-05-02T23:59:57.691Z,5.40
